createdAt,value
2018-05-17T00:00:45.079Z,90.60
2018-05-17T00:03:13.126Z,90.70
2018-05-17T00:05:41.165Z,90.50
2018-05-17T00:08:09.270Z,90.50
2018-05-17T00:10:37.317Z,90.30
2018-05-17T00:13:05.365Z,90.80
2018-05-17T00:15:33.422Z,90.80
2018-05-17T00:18:02.221Z,90.70
2018-05-17T00:20:30.278Z,90.60
2018-05-17T00:22:58.334Z,90.40
2018-05-17T00:25:26.378Z,90.20
2018-05-17T00:27:54.426Z,90.40
2018-05-17T00:30:22.514Z,90.50
2018-05-17T00:32:50.554Z,90.20
2018-05-17T00:35:18.623Z,90.20
2018-05-17T00:37:46.703Z,90.30
2018-05-17T00:40:15.522Z,90.30
2018-05-17T00:42:43.606Z,90.20
2018-05-17T00:45:11.672Z,90.30
2018-05-17T00:47:39.714Z,90.30
2018-05-17T00:50:07.765Z,90.30
2018-05-17T00:52:35.834Z,90.40
2018-05-17T00:55:03.911Z,90.40
2018-05-17T00:57:32.742Z,90.50
2018-05-17T01:00:00.798Z,90.50
2018-05-17T01:02:28.862Z,90.80
2018-05-17T01:04:56.926Z,91.00
2018-05-17T01:07:25.010Z,90.90
2018-05-17T01:09:53.058Z,91.10
2018-05-17T01:12:21.177Z,91.40
2018-05-17T01:14:49.250Z,91.50
2018-05-17T01:17:17.354Z,91.40
2018-05-17T01:19:45.446Z,91.40
2018-05-17T01:22:13.508Z,91.50
2018-05-17T01:24:41.566Z,91.80
2018-05-17T01:27:09.619Z,91.50
2018-05-17T01:29:37.682Z,91.50
2018-05-17T01:32:05.738Z,91.50
2018-05-17T01:34:33.789Z,91.60
2018-05-17T01:37:14.191Z,91.20
2018-05-17T01:39:42.255Z,91.20
2018-05-17T01:42:10.333Z,91.00
2018-05-17T01:44:38.374Z,90.80
2018-05-17T01:47:06.446Z,90.60
2018-05-17T01:49:34.505Z,90.50
2018-05-17T01:52:02.559Z,89.40
2018-05-17T01:54:30.617Z,88.90
2018-05-17T01:56:58.691Z,89.80
2018-05-17T01:59:26.746Z,89.80
2018-05-17T02:01:54.794Z,89.00
2018-05-17T02:04:22.840Z,89.70
2018-05-17T02:06:50.897Z,90.00
2018-05-17T02:09:18.994Z,90.50
2018-05-17T02:11:47.810Z,90.40
2018-05-17T02:14:15.858Z,90.40
2018-05-17T02:16:43.913Z,90.30
2018-05-17T02:19:12.769Z,90.40
2018-05-17T02:21:41.670Z,90.40
2018-05-17T02:24:09.715Z,90.40
2018-05-17T02:26:37.752Z,90.40
2018-05-17T02:29:05.801Z,90.40
2018-05-17T02:31:33.853Z,90.40
2018-05-17T02:34:01.905Z,90.50
2018-05-17T02:36:29.963Z,90.40
2018-05-17T02:38:58.006Z,90.30
2018-05-17T02:41:26.046Z,90.20
2018-05-17T02:43:54.107Z,90.10
2018-05-17T02:46:22.167Z,89.90
2018-05-17T02:48:50.219Z,89.90
2018-05-17T02:51:18.262Z,90.00
2018-05-17T02:53:47.077Z,89.80
2018-05-17T02:56:15.122Z,89.80
2018-05-17T02:58:43.953Z,90.00
2018-05-17T03:01:11.999Z,90.00
2018-05-17T03:03:40.058Z,90.20
2018-05-17T03:06:08.174Z,90.10
2018-05-17T03:08:36.219Z,90.00
2018-05-17T03:11:04.269Z,89.60
2018-05-17T03:13:32.331Z,89.40
2018-05-17T03:16:00.374Z,89.30
2018-05-17T03:18:28.429Z,89.20
2018-05-17T03:20:56.470Z,89.00
2018-05-17T03:23:24.518Z,89.20
2018-05-17T03:25:52.574Z,89.70
2018-05-17T03:28:20.634Z,90.40
2018-05-17T03:30:48.690Z,90.40
2018-05-17T03:33:16.759Z,90.60
2018-05-17T03:35:44.800Z,90.40
2018-05-17T03:38:13.622Z,90.60
2018-05-17T03:40:41.697Z,90.60
2018-05-17T03:43:09.782Z,90.30
2018-05-17T03:45:37.826Z,89.80
2018-05-17T03:48:05.896Z,88.80
2018-05-17T03:50:33.954Z,89.20
2018-05-17T03:53:02.007Z,89.20
2018-05-17T03:55:30.068Z,88.50
2018-05-17T03:57:58.115Z,88.70
2018-05-17T04:00:27.687Z,88.50
2018-05-17T04:03:07.582Z,88.40
2018-05-17T04:05:44.526Z,88.50
2018-05-17T04:08:12.590Z,88.00
2018-05-17T04:10:40.697Z,87.70
2018-05-17T04:13:08.760Z,88.50
2018-05-17T04:15:36.824Z,88.20
2018-05-17T04:18:04.866Z,88.60
2018-05-17T04:20:32.942Z,89.50
2018-05-17T04:23:00.991Z,89.50
2018-05-17T04:25:29.806Z,88.20
2018-05-17T04:27:57.922Z,88.20
2018-05-17T04:30:25.972Z,88.40
2018-05-17T04:32:54.021Z,88.40
2018-05-17T04:35:22.074Z,88.10
2018-05-17T04:37:52.797Z,88.30
2018-05-17T04:40:20.892Z,88.90
2018-05-17T04:42:48.929Z,87.80
2018-05-17T04:45:16.973Z,87.70
2018-05-17T04:47:45.041Z,87.70
2018-05-17T04:50:13.097Z,87.70
2018-05-17T04:52:41.143Z,87.10
2018-05-17T04:55:09.962Z,87.30
2018-05-17T04:57:38.053Z,87.20
2018-05-17T05:00:06.128Z,87.10
2018-05-17T05:02:34.154Z,87.20
2018-05-17T05:05:02.198Z,86.90
2018-05-17T05:07:30.258Z,87.30
2018-05-17T05:09:58.329Z,87.10
2018-05-17T05:12:26.379Z,87.20
2018-05-17T05:14:54.441Z,86.60
2018-05-17T05:17:22.510Z,86.30
2018-05-17T05:19:50.569Z,86.20
2018-05-17T05:22:19.376Z,86.40
2018-05-17T05:24:47.417Z,86.40
2018-05-17T05:27:15.474Z,86.30
2018-05-17T05:29:43.521Z,85.90
2018-05-17T05:32:11.591Z,85.90
2018-05-17T05:34:39.653Z,87.30
2018-05-17T05:37:07.706Z,87.20
2018-05-17T05:39:35.749Z,86.70
2018-05-17T05:42:04.594Z,87.50
2018-05-17T05:44:32.699Z,87.40
2018-05-17T05:47:00.750Z,86.90
2018-05-17T05:49:29.648Z,87.20
2018-05-17T05:51:57.610Z,87.30
2018-05-17T05:54:25.666Z,87.20
2018-05-17T05:56:53.727Z,86.30
2018-05-17T05:59:21.765Z,86.10
2018-05-17T06:01:50.616Z,86.80
2018-05-17T06:04:18.816Z,86.70
2018-05-17T06:06:46.931Z,87.30
2018-05-17T06:09:14.976Z,87.10
2018-05-17T06:11:43.019Z,87.10
2018-05-17T06:14:11.077Z,87.00
2018-05-17T06:16:39.889Z,86.80
2018-05-17T06:19:07.942Z,86.90
2018-05-17T06:21:36.005Z,87.10
2018-05-17T06:24:04.075Z,86.00
2018-05-17T06:26:32.126Z,86.30
2018-05-17T06:29:00.189Z,86.30
2018-05-17T06:31:28.249Z,87.20
2018-05-17T06:33:56.298Z,86.50
2018-05-17T06:36:24.339Z,85.90
2018-05-17T06:38:53.160Z,85.30
2018-05-17T06:41:21.224Z,85.30
2018-05-17T06:43:49.310Z,86.90
2018-05-17T06:46:17.326Z,84.80
2018-05-17T06:48:45.423Z,84.80
2018-05-17T06:51:13.478Z,84.90
2018-05-17T06:53:41.560Z,85.70
2018-05-17T06:56:09.597Z,85.60
2018-05-17T06:58:37.642Z,85.50
2018-05-17T07:01:05.763Z,85.10
2018-05-17T07:03:33.774Z,85.30
2018-05-17T07:06:01.822Z,85.00
2018-05-17T07:08:29.900Z,84.00
2018-05-17T07:10:57.958Z,83.30
2018-05-17T07:13:26.012Z,84.80
2018-05-17T07:15:54.076Z,83.50
2018-05-17T07:18:22.308Z,83.60
2018-05-17T07:20:50.946Z,79.50
2018-05-17T07:23:19.150Z,79.40
2018-05-17T07:25:47.206Z,81.90
2018-05-17T07:28:15.270Z,83.00
2018-05-17T07:30:43.314Z,80.90
2018-05-17T07:33:11.378Z,79.50
2018-05-17T07:35:40.241Z,80.40
2018-05-17T07:38:08.314Z,80.40
2018-05-17T07:40:41.303Z,79.70
2018-05-17T07:43:09.370Z,79.50
2018-05-17T07:45:37.476Z,79.60
2018-05-17T07:48:05.519Z,80.80
2018-05-17T07:50:34.373Z,78.60
2018-05-17T07:53:02.651Z,79.00
2018-05-17T07:55:30.699Z,77.60
2018-05-17T07:57:58.731Z,78.80
2018-05-17T08:00:26.855Z,78.00
2018-05-17T08:02:54.837Z,77.80
2018-05-17T08:05:22.914Z,77.90
2018-05-17T08:07:50.994Z,77.90
2018-05-17T08:10:19.048Z,77.50
2018-05-17T08:12:47.081Z,79.80
2018-05-17T08:15:15.909Z,78.00
2018-05-17T08:17:43.977Z,78.00
2018-05-17T08:20:12.017Z,75.70
2018-05-17T08:22:40.055Z,75.40
2018-05-17T08:25:08.110Z,76.00
2018-05-17T08:27:36.182Z,75.70
2018-05-17T08:30:04.246Z,76.10
2018-05-17T08:32:37.137Z,75.10
2018-05-17T08:35:05.226Z,76.80
2018-05-17T08:37:33.263Z,77.50
2018-05-17T08:40:01.334Z,76.20
2018-05-17T08:42:29.459Z,76.40
2018-05-17T08:44:58.217Z,75.20
2018-05-17T08:47:26.282Z,75.10
2018-05-17T08:49:54.324Z,76.40
2018-05-17T08:52:23.125Z,75.50
2018-05-17T08:54:51.215Z,75.50
2018-05-17T08:57:19.274Z,76.70
2018-05-17T08:59:47.355Z,75.30
2018-05-17T09:02:15.386Z,76.00
2018-05-17T09:04:43.425Z,75.00
2018-05-17T09:07:11.486Z,75.90
2018-05-17T09:09:39.557Z,75.70
2018-05-17T09:12:07.606Z,72.30
2018-05-17T09:14:35.658Z,71.40
2018-05-17T09:17:03.712Z,72.30
2018-05-17T09:19:31.759Z,70.40
2018-05-17T09:21:59.830Z,70.20
2018-05-17T09:24:27.874Z,70.20
2018-05-17T09:26:55.918Z,71.50
2018-05-17T09:29:24.747Z,72.80
2018-05-17T09:31:52.982Z,72.10
2018-05-17T09:34:21.790Z,72.20
2018-05-17T09:36:49.844Z,72.10
2018-05-17T09:39:17.890Z,69.70
2018-05-17T09:41:45.926Z,71.50
2018-05-17T09:44:13.991Z,70.60
2018-05-17T09:46:42.030Z,70.30
2018-05-17T09:49:10.928Z,71.00
2018-05-17T09:51:39.007Z,70.80
2018-05-17T09:54:07.044Z,71.20
2018-05-17T09:56:35.118Z,70.80
2018-05-17T09:59:03.155Z,70.20
2018-05-17T10:01:31.977Z,70.40
2018-05-17T10:04:00.026Z,70.30
2018-05-17T10:06:28.066Z,71.20
2018-05-17T10:08:56.143Z,71.10
2018-05-17T10:11:24.161Z,71.40
2018-05-17T10:13:52.235Z,72.90
2018-05-17T10:16:20.280Z,71.50
2018-05-17T10:18:48.337Z,70.80
2018-05-17T10:21:16.390Z,69.70
2018-05-17T10:23:44.449Z,67.00
2018-05-17T10:26:12.493Z,64.10
2018-05-17T10:28:40.567Z,67.50
2018-05-17T10:31:08.639Z,68.80
2018-05-17T10:33:36.709Z,69.00
2018-05-17T10:36:04.754Z,69.70
2018-05-17T10:38:32.818Z,68.10
2018-05-17T10:41:00.870Z,68.80
2018-05-17T10:43:28.931Z,68.20
2018-05-17T10:45:57.406Z,65.20
2018-05-17T10:48:25.464Z,66.70
2018-05-17T10:50:53.506Z,64.30
2018-05-17T10:53:21.569Z,66.90
2018-05-17T10:55:49.613Z,65.10
2018-05-17T10:58:17.687Z,67.00
2018-05-17T11:00:45.775Z,66.70
2018-05-17T11:03:13.818Z,67.20
2018-05-17T11:05:41.874Z,66.70
2018-05-17T11:08:09.917Z,67.30
2018-05-17T11:10:37.970Z,65.60
2018-05-17T11:13:06.033Z,66.30
2018-05-17T11:15:34.086Z,67.90
2018-05-17T11:18:02.126Z,66.80
2018-05-17T11:20:30.185Z,68.70
2018-05-17T11:22:58.242Z,68.60
2018-05-17T11:25:26.290Z,67.40
2018-05-17T11:27:54.332Z,69.20
2018-05-17T11:30:22.398Z,67.70
2018-05-17T11:32:50.430Z,68.60
2018-05-17T11:35:18.470Z,68.90
2018-05-17T11:37:46.536Z,69.00
2018-05-17T11:40:14.582Z,68.90
2018-05-17T11:42:42.630Z,71.10
2018-05-17T11:45:10.685Z,67.20
2018-05-17T11:47:38.741Z,68.80
2018-05-17T11:50:06.862Z,69.20
2018-05-17T11:52:35.685Z,67.20
2018-05-17T11:55:03.742Z,67.20
2018-05-17T11:57:31.773Z,67.10
2018-05-17T12:00:06.586Z,69.40
2018-05-17T12:02:37.630Z,68.60
2018-05-17T12:05:09.519Z,69.20
2018-05-17T12:07:37.604Z,68.70
2018-05-17T12:10:14.538Z,68.80
2018-05-17T12:12:56.406Z,68.60
2018-05-17T12:15:27.607Z,69.40
2018-05-17T12:18:06.363Z,67.70
2018-05-17T12:20:36.287Z,67.00
2018-05-17T12:23:04.377Z,66.60
2018-05-17T12:25:33.149Z,67.00
2018-05-17T12:28:08.223Z,66.90
2018-05-17T12:30:36.310Z,66.70
2018-05-17T12:33:04.374Z,70.50
2018-05-17T12:35:32.437Z,71.10
2018-05-17T12:38:00.470Z,65.00
2018-05-17T12:40:28.534Z,68.50
2018-05-17T12:42:56.581Z,67.40
2018-05-17T12:45:36.405Z,68.30
2018-05-17T12:48:04.460Z,64.50
2018-05-17T12:50:32.518Z,63.30
2018-05-17T12:53:00.565Z,65.00
2018-05-17T12:55:29.377Z,63.80
2018-05-17T12:57:57.485Z,64.50
2018-05-17T13:00:25.530Z,66.40
2018-05-17T13:02:53.620Z,62.60
2018-05-17T13:05:24.158Z,62.10
2018-05-17T13:07:52.198Z,60.20
2018-05-17T13:10:20.286Z,64.00
2018-05-17T13:12:48.329Z,59.10
2018-05-17T13:15:16.378Z,63.30
2018-05-17T13:17:44.435Z,60.40
2018-05-17T13:20:12.640Z,63.50
2018-05-17T13:22:41.460Z,60.00
2018-05-17T13:25:09.551Z,59.90
2018-05-17T13:27:37.593Z,58.90
2018-05-17T13:30:05.651Z,61.50
2018-05-17T13:32:33.697Z,59.00
2018-05-17T13:35:01.742Z,62.30
2018-05-17T13:37:29.930Z,56.70
2018-05-17T13:39:57.889Z,55.30
2018-05-17T13:42:25.936Z,57.10
2018-05-17T13:44:53.982Z,60.70
2018-05-17T13:47:22.038Z,54.50
2018-05-17T13:49:50.894Z,57.10
2018-05-17T13:52:18.938Z,57.20
2018-05-17T13:54:47.031Z,54.30
2018-05-17T13:57:15.046Z,60.30
2018-05-17T13:59:43.863Z,53.50
2018-05-17T14:02:11.969Z,53.30
2018-05-17T14:04:40.023Z,56.50
2018-05-17T14:07:08.079Z,55.90
2018-05-17T14:09:36.132Z,57.00
2018-05-17T14:12:04.950Z,51.90
2018-05-17T14:14:33.030Z,52.00
2018-05-17T14:17:01.070Z,52.40
2018-05-17T14:19:29.129Z,52.40
2018-05-17T14:21:57.991Z,48.60
2018-05-17T14:24:26.041Z,48.50
2018-05-17T14:26:54.117Z,51.40
2018-05-17T14:29:22.183Z,53.60
2018-05-17T14:31:50.345Z,53.30
2018-05-17T14:34:18.398Z,54.60
2018-05-17T14:36:46.433Z,54.70
2018-05-17T14:39:14.478Z,55.00
2018-05-17T14:41:42.586Z,50.70
2018-05-17T14:44:10.650Z,50.10
2018-05-17T14:46:43.626Z,52.50
2018-05-17T14:49:11.705Z,52.00
2018-05-17T14:51:39.778Z,52.40
2018-05-17T14:54:07.820Z,55.70
2018-05-17T14:56:35.878Z,50.40
2018-05-17T14:59:03.942Z,50.20
2018-05-17T15:01:32.002Z,51.10
2018-05-17T15:04:00.821Z,48.40
2018-05-17T15:06:28.919Z,48.60
2018-05-17T15:08:57.000Z,43.90
2018-05-17T15:11:25.043Z,44.70
2018-05-17T15:13:53.166Z,48.30
2018-05-17T15:16:21.148Z,47.90
2018-05-17T15:18:49.199Z,47.60
2018-05-17T15:21:17.260Z,48.50
2018-05-17T15:23:45.322Z,47.90
2018-05-17T15:26:13.374Z,49.00
2018-05-17T15:28:42.197Z,46.50
2018-05-17T15:31:10.240Z,46.50
2018-05-17T15:33:38.287Z,47.00
2018-05-17T15:36:06.346Z,44.20
2018-05-17T15:38:34.414Z,43.20
2018-05-17T15:41:02.600Z,44.60
2018-05-17T15:43:30.698Z,44.30
2018-05-17T15:45:59.955Z,42.70
2018-05-17T15:48:29.656Z,45.20
2018-05-17T15:50:58.036Z,47.20
2018-05-17T15:53:27.241Z,45.80
2018-05-17T15:55:55.416Z,46.50
2018-05-17T15:58:23.988Z,41.60
2018-05-17T16:00:53.769Z,40.60
2018-05-17T16:03:21.956Z,40.60
2018-05-17T16:05:51.232Z,39.40
2018-05-17T16:08:20.471Z,40.10
2018-05-17T16:10:49.983Z,37.20
2018-05-17T16:13:18.983Z,36.60
2018-05-17T16:15:47.840Z,36.20
2018-05-17T16:18:16.462Z,36.10
2018-05-17T16:20:44.743Z,34.00
2018-05-17T16:23:13.081Z,34.10
2018-05-17T16:25:41.376Z,33.80
2018-05-17T16:28:12.477Z,34.80
2018-05-17T16:30:40.772Z,34.30
2018-05-17T16:33:08.822Z,31.70
2018-05-17T16:35:36.916Z,32.50
2018-05-17T16:38:04.978Z,30.00
2018-05-17T16:40:33.125Z,31.70
2018-05-17T16:43:01.194Z,30.90
2018-05-17T16:45:29.261Z,30.50
2018-05-17T16:47:58.109Z,29.20
2018-05-17T16:50:26.182Z,29.20
2018-05-17T16:52:54.235Z,30.00
2018-05-17T16:55:22.309Z,29.40
2018-05-17T16:57:50.425Z,29.00
2018-05-17T17:00:18.449Z,29.00
2018-05-17T17:02:46.546Z,28.50
2018-05-17T17:05:14.607Z,28.40
2018-05-17T17:07:42.707Z,28.10
2018-05-17T17:10:10.754Z,29.40
2018-05-17T17:12:38.794Z,29.90
2018-05-17T17:15:06.885Z,29.30
2018-05-17T17:17:34.974Z,29.90
2018-05-17T17:20:03.050Z,29.60
2018-05-17T17:22:31.101Z,29.70
2018-05-17T17:24:59.182Z,30.80
2018-05-17T17:27:27.230Z,30.00
2018-05-17T17:29:55.289Z,29.80
2018-05-17T17:32:23.366Z,29.60
2018-05-17T17:34:51.436Z,29.50
2018-05-17T17:37:24.637Z,29.40
2018-05-17T17:39:52.723Z,29.70
2018-05-17T17:42:24.417Z,29.40
2018-05-17T17:44:52.860Z,30.60
2018-05-17T17:47:20.985Z,30.20
2018-05-17T17:49:49.055Z,31.10
2018-05-17T17:52:17.886Z,31.50
2018-05-17T17:54:45.949Z,32.10
2018-05-17T17:57:14.048Z,30.60
2018-05-17T17:59:42.134Z,31.60
2018-05-17T18:02:10.226Z,31.50
2018-05-17T18:04:38.290Z,30.90
2018-05-17T18:07:06.358Z,31.40
2018-05-17T18:09:34.513Z,32.70
2018-05-17T18:12:02.545Z,33.40
2018-05-17T18:14:30.618Z,34.10
2018-05-17T18:16:58.722Z,34.20
2018-05-17T18:19:26.781Z,33.50
2018-05-17T18:21:54.866Z,34.40
2018-05-17T18:24:22.962Z,34.40
2018-05-17T18:26:51.791Z,35.40
2018-05-17T18:29:21.827Z,36.30
2018-05-17T18:31:49.881Z,36.30
2018-05-17T18:34:18.714Z,37.50
2018-05-17T18:36:46.830Z,37.40
2018-05-17T18:39:14.920Z,38.30
2018-05-17T18:41:42.958Z,39.20
2018-05-17T18:44:11.107Z,39.80
2018-05-17T18:46:39.183Z,41.00
2018-05-17T18:49:07.253Z,42.00
2018-05-17T18:51:35.420Z,42.60
2018-05-17T18:54:03.478Z,43.20
2018-05-17T18:56:31.570Z,44.30
2018-05-17T18:58:59.646Z,45.20
2018-05-17T19:01:27.726Z,45.90
2018-05-17T19:03:55.834Z,47.10
2018-05-17T19:06:24.809Z,47.90
2018-05-17T19:08:52.871Z,49.10
2018-05-17T19:11:26.029Z,47.80
2018-05-17T19:13:54.134Z,48.30
2018-05-17T19:16:23.173Z,48.70
2018-05-17T19:18:51.262Z,49.10
2018-05-17T19:21:19.350Z,49.70
2018-05-17T19:23:47.422Z,49.70
2018-05-17T19:26:15.497Z,50.10
2018-05-17T19:28:43.646Z,51.00
2018-05-17T19:31:16.552Z,50.80
2018-05-17T19:33:44.607Z,51.10
2018-05-17T19:36:12.677Z,51.20
2018-05-17T19:38:41.278Z,51.20
2018-05-17T19:41:09.351Z,51.40
2018-05-17T19:43:37.431Z,51.60
2018-05-17T19:46:05.519Z,52.90
2018-05-17T19:48:33.617Z,53.50
2018-05-17T19:51:01.721Z,52.70
2018-05-17T19:53:29.773Z,52.50
2018-05-17T19:56:09.517Z,53.60
2018-05-17T19:58:37.557Z,53.20
2018-05-17T20:01:05.607Z,55.70
2018-05-17T20:03:34.657Z,55.80
2018-05-17T20:06:02.723Z,55.50
2018-05-17T20:08:30.809Z,57.20
2018-05-17T20:10:58.923Z,54.90
2018-05-17T20:13:27.018Z,55.30
2018-05-17T20:15:55.854Z,57.80
2018-05-17T20:18:23.941Z,57.80
2018-05-17T20:20:52.019Z,57.30
2018-05-17T20:23:20.075Z,58.00
2018-05-17T20:25:48.349Z,56.40
2018-05-17T20:28:17.253Z,59.20
2018-05-17T20:30:45.245Z,59.10
2018-05-17T20:33:13.317Z,58.10
2018-05-17T20:35:41.390Z,58.90
2018-05-17T20:38:09.472Z,59.60
2018-05-17T20:40:37.545Z,59.50
2018-05-17T20:43:05.626Z,60.00
2018-05-17T20:45:33.709Z,60.00
2018-05-17T20:48:01.790Z,60.60
2018-05-17T20:50:29.829Z,61.40
2018-05-17T20:52:57.912Z,61.30
2018-05-17T20:55:25.970Z,59.90
2018-05-17T20:57:54.061Z,60.70
2018-05-17T21:00:22.157Z,60.80
2018-05-17T21:02:50.229Z,62.20
2018-05-17T21:05:18.279Z,61.70
2018-05-17T21:07:46.382Z,63.30
2018-05-17T21:10:14.462Z,63.60
2018-05-17T21:12:49.297Z,63.50
2018-05-17T21:15:17.350Z,64.00
2018-05-17T21:17:45.421Z,63.80
2018-05-17T21:20:13.502Z,63.60
2018-05-17T21:22:42.342Z,64.50
2018-05-17T21:25:10.422Z,64.50
2018-05-17T21:27:38.494Z,65.10
2018-05-17T21:30:07.314Z,65.60
2018-05-17T21:32:35.393Z,65.60
2018-05-17T21:35:03.462Z,66.40
2018-05-17T21:37:31.538Z,65.60
2018-05-17T21:39:59.617Z,66.10
2018-05-17T21:42:27.698Z,67.30
2018-05-17T21:44:55.767Z,67.20
2018-05-17T21:47:24.617Z,67.20
2018-05-17T21:49:52.686Z,67.20
2018-05-17T21:52:34.654Z,67.50
2018-05-17T21:55:02.710Z,68.00
2018-05-17T21:57:30.782Z,68.80
2018-05-17T21:59:59.630Z,68.90
2018-05-17T22:02:28.464Z,69.40
2018-05-17T22:04:57.301Z,69.40
2018-05-17T22:07:25.385Z,69.30
2018-05-17T22:09:55.198Z,69.80
2018-05-17T22:12:23.274Z,69.70
2018-05-17T22:14:51.341Z,70.00
2018-05-17T22:17:19.409Z,69.20
2018-05-17T22:19:47.477Z,69.40
2018-05-17T22:22:15.570Z,70.10
2018-05-17T22:24:43.645Z,69.60
2018-05-17T22:27:11.822Z,70.00
2018-05-17T22:29:39.899Z,70.50
2018-05-17T22:32:07.953Z,71.30
2018-05-17T22:34:37.531Z,72.00
2018-05-17T22:37:05.605Z,71.90
2018-05-17T22:39:33.662Z,72.40
2018-05-17T22:42:07.553Z,71.90
2018-05-17T22:44:36.379Z,72.30
2018-05-17T22:47:05.282Z,72.30
2018-05-17T22:49:33.350Z,72.20
2018-05-17T22:52:01.409Z,72.50
2018-05-17T22:54:29.450Z,72.50
2018-05-17T22:57:09.397Z,72.80
2018-05-17T22:59:39.081Z,73.20
2018-05-17T23:02:07.141Z,73.10
2018-05-17T23:04:35.210Z,73.80
2018-05-17T23:07:03.269Z,73.50
2018-05-17T23:09:31.318Z,73.80
2018-05-17T23:11:59.398Z,73.80
2018-05-17T23:14:27.458Z,74.20
2018-05-17T23:16:55.504Z,74.20
2018-05-17T23:19:24.342Z,75.10
2018-05-17T23:21:52.420Z,75.00
2018-05-17T23:24:20.482Z,74.80
2018-05-17T23:26:48.537Z,75.10
2018-05-17T23:29:16.617Z,75.10
2018-05-17T23:31:44.675Z,74.70
2018-05-17T23:34:12.729Z,74.80
2018-05-17T23:36:40.801Z,75.20
2018-05-17T23:39:08.878Z,76.10
2018-05-17T23:41:36.922Z,75.90
2018-05-17T23:44:04.994Z,75.80
2018-05-17T23:46:33.066Z,75.00
2018-05-17T23:49:01.141Z,75.20
2018-05-17T23:51:29.215Z,74.80
2018-05-17T23:53:57.346Z,75.30
2018-05-17T23:56:25.434Z,75.70
2018-05-17T23:58:54.262Z,76.20
